Time;durP1;ratioP1;P1;durP2;ratioP2;P2;SDS_P1;SDS_P2;PMS_P1;PMS_P2;Temp;Humidity;BMP_temperature;BMP_pressure;BME280_temperature;BME280_humidity;BME280_pressure;Samples;Min_cycle;Max_cycle;Signal;HPM_P1;HPM_P2
2022/03/16 00:01:49;;;;;;;70.50;47.53;;;6.60;99.90;;;;;;5072825;28;20498;-78
2022/03/16 00:04:16;;;;;;;59.47;41.88;;;6.50;99.90;;;;;;5074129;28;20055;-78
2022/03/16 00:06:41;;;;;;;69.65;45.65;;;6.50;99.90;;;;;;5072828;28;20055;-78
2022/03/16 00:09:07;;;;;;;75.35;46.35;;;6.50;99.90;;;;;;5074489;28;20674;-77
2022/03/16 00:11:33;;;;;;;67.03;42.72;;;6.40;99.90;;;;;;5071980;28;20044;-78
2022/03/16 00:13:59;;;;;;;67.45;44.97;;;6.30;99.90;;;;;;5074178;28;20048;-78
2022/03/16 00:16:25;;;;;;;56.95;41.58;;;6.30;99.90;;;;;;5074878;28;20054;-79
2022/03/16 00:18:51;;;;;;;65.10;42.75;;;6.20;99.90;;;;;;5070921;28;20116;-78
2022/03/16 00:21:16;;;;;;;81.53;42.63;;;6.30;99.90;;;;;;5054350;28;20078;-78
2022/03/16 00:23:42;;;;;;;64.93;42.72;;;6.20;99.90;;;;;;5054035;28;20078;-78
2022/03/16 00:26:07;;;;;;;66.25;42.47;;;6.20;99.90;;;;;;5054058;28;20111;-79
2022/03/16 00:28:33;;;;;;;66.40;43.42;;;6.10;99.90;;;;;;5053119;28;20045;-79
2022/03/16 00:30:58;;;;;;;63.40;42.65;;;6.00;99.90;;;;;;5072426;28;20651;-80
2022/03/16 00:33:24;;;;;;;68.90;43.63;;;6.00;99.90;;;;;;5073195;28;20086;-79
2022/03/16 00:35:49;;;;;;;67.53;45.05;;;5.90;99.90;;;;;;5074149;28;20099;-78
2022/03/16 00:38:16;;;;;;;64.07;41.97;;;6.00;99.90;;;;;;5074063;28;20051;-80
2022/03/16 00:40:43;;;;;;;60.05;38.78;;;5.90;99.90;;;;;;5074076;28;20047;-78
2022/03/16 00:43:08;;;;;;;64.78;42.40;;;5.80;99.90;;;;;;5073483;28;20044;-80
2022/03/16 00:45:34;;;;;;;68.15;43.22;;;5.80;99.90;;;;;;5072319;28;20411;-78
2022/03/16 00:47:59;;;;;;;67.78;42.60;;;5.80;99.90;;;;;;5074143;28;20048;-79
2022/03/16 00:50:25;;;;;;;77.28;45.70;;;5.80;99.90;;;;;;5054499;28;20114;-78
2022/03/16 00:52:51;;;;;;;59.63;40.67;;;5.90;99.90;;;;;;5066461;28;20412;-78
2022/03/16 00:55:16;;;;;;;70.38;45.65;;;5.80;99.90;;;;;;5074175;28;20542;-78
2022/03/16 00:57:42;;;;;;;68.10;42.13;;;5.90;99.90;;;;;;5071214;28;20040;-78
2022/03/16 01:00:10;;;;;;;68.72;45.65;;;6.00;99.90;;;;;;5073989;28;20175;-77
2022/03/16 01:02:35;;;;;;;69.18;42.53;;;5.90;99.90;;;;;;5073967;28;20044;-78
2022/03/16 01:05:01;;;;;;;70.85;43.90;;;5.90;99.90;;;;;;5074261;28;20051;-78
2022/03/16 01:07:27;;;;;;;61.28;40.70;;;5.90;99.90;;;;;;5073631;28;20037;-77
2022/03/16 01:09:53;;;;;;;66.97;44.17;;;5.80;99.90;;;;;;5073979;28;20036;-78
2022/03/16 01:12:20;;;;;;;78.97;45.28;;;5.80;99.90;;;;;;5070621;28;20510;-78
2022/03/16 01:14:46;;;;;;;63.75;41.65;;;5.70;99.90;;;;;;5070191;28;20053;-78
2022/03/16 01:17:12;;;;;;;68.22;42.28;;;5.60;99.90;;;;;;5070733;28;20113;-78
2022/03/16 01:19:38;;;;;;;62.40;42.97;;;5.50;99.90;;;;;;5058468;28;20534;-78
2022/03/16 01:22:05;;;;;;;68.25;42.05;;;5.40;99.90;;;;;;5050634;28;20059;-78
2022/03/16 01:24:31;;;;;;;64.72;41.30;;;5.40;99.90;;;;;;5050317;28;20037;-79
2022/03/16 01:26:56;;;;;;;69.63;42.17;;;5.50;99.90;;;;;;5052309;28;20503;-78
2022/03/16 01:29:24;;;;;;;59.42;40.78;;;5.40;99.90;;;;;;5070823;28;20091;-78
2022/03/16 01:31:53;;;;;;;60.58;39.67;;;5.30;99.90;;;;;;5070355;28;20448;-77
2022/03/16 01:34:19;;;;;;;71.90;42.00;;;5.20;99.90;;;;;;5070361;28;20036;-78
2022/03/16 01:36:45;;;;;;;66.10;39.30;;;5.20;99.90;;;;;;5068438;28;20476;-79
2022/03/16 01:39:11;;;;;;;59.53;40.75;;;5.20;99.90;;;;;;5069995;28;20052;-78
2022/03/16 01:41:36;;;;;;;57.47;38.03;;;5.20;99.90;;;;;;5067603;28;20044;-78
2022/03/16 01:44:03;;;;;;;62.97;39.97;;;5.30;99.90;;;;;;5069810;28;20129;-78
2022/03/16 01:46:29;;;;;;;58.28;36.08;;;5.10;99.90;;;;;;5068566;28;20495;-78
2022/03/16 01:48:55;;;;;;;52.67;35.88;;;4.90;99.90;;;;;;5064653;28;20040;-79
2022/03/16 01:51:21;;;;;;;62.47;37.15;;;4.90;99.90;;;;;;5050032;28;20132;-79
2022/03/16 01:53:48;;;;;;;60.30;37.92;;;4.80;99.90;;;;;;5055725;28;20099;-79
2022/03/16 01:56:16;;;;;;;57.17;38.92;;;4.70;99.90;;;;;;5068839;28;20072;-78
2022/03/16 01:58:42;;;;;;;62.20;39.70;;;4.80;99.90;;;;;;5069576;28;20049;-78
2022/03/16 02:01:08;;;;;;;54.47;37.25;;;4.70;99.90;;;;;;5069886;28;20167;-79
2022/03/16 02:03:33;;;;;;;54.17;37.58;;;4.70;99.90;;;;;;5069321;28;20131;-79
2022/03/16 02:06:00;;;;;;;56.30;33.70;;;4.70;99.90;;;;;;5069887;28;20044;-78
2022/03/16 02:08:28;;;;;;;61.13;36.90;;;4.50;99.90;;;;;;5069395;28;20502;-77
2022/03/16 02:10:54;;;;;;;63.33;38.67;;;4.50;99.90;;;;;;5069595;28;20048;-78
2022/03/16 02:13:20;;;;;;;54.97;34.85;;;4.50;99.90;;;;;;5067429;28;20438;-78
2022/03/16 02:15:45;;;;;;;57.47;36.20;;;4.40;99.90;;;;;;5069052;28;20045;-77
2022/03/16 02:18:11;;;;;;;63.63;38.55;;;4.40;99.90;;;;;;5069565;28;20516;-78
2022/03/16 02:20:37;;;;;;;57.15;37.55;;;4.30;99.90;;;;;;5049695;28;20151;-78
2022/03/16 02:23:05;;;;;;;61.85;39.78;;;4.30;99.90;;;;;;5049198;28;20151;-77
2022/03/16 02:25:31;;;;;;;68.15;37.28;;;4.40;99.90;;;;;;5048957;28;20037;-77
2022/03/16 02:27:58;;;;;;;70.05;43.55;;;4.40;99.90;;;;;;5048708;28;20049;-78
2022/03/16 02:30:25;;;;;;;78.78;46.25;;;4.50;99.90;;;;;;5049494;28;20040;-78
2022/03/16 02:32:51;;;;;;;62.63;40.63;;;4.50;99.90;;;;;;5049110;28;20076;-78
2022/03/16 02:35:17;;;;;;;92.43;42.03;;;4.50;99.90;;;;;;5049193;28;20115;-78
2022/03/16 02:37:43;;;;;;;82.10;42.67;;;4.40;99.90;;;;;;5048734;28;20819;-78
2022/03/16 02:40:11;;;;;;;70.28;41.78;;;4.40;99.90;;;;;;5049968;28;20041;-78
2022/03/16 02:42:37;;;;;;;74.90;42.70;;;4.50;99.90;;;;;;5047914;28;20089;-78
2022/03/16 02:45:05;;;;;;;76.40;47.20;;;4.50;99.90;;;;;;5048741;28;20029;-78
2022/03/16 02:47:31;;;;;;;76.50;43.35;;;4.50;99.90;;;;;;5048276;28;20269;-78
2022/03/16 02:49:57;;;;;;;77.40;47.85;;;4.70;99.90;;;;;;5047380;28;20037;-78
2022/03/16 02:52:22;;;;;;;70.97;45.00;;;4.70;99.90;;;;;;5049110;28;20076;-79
2022/03/16 02:54:49;;;;;;;74.65;45.58;;;4.80;99.90;;;;;;5048292;28;20041;-77
2022/03/16 02:57:16;;;;;;;72.68;44.67;;;4.70;99.90;;;;;;5047957;28;20048;-76
2022/03/16 02:59:42;;;;;;;72.40;43.83;;;4.60;99.90;;;;;;5048354;28;20362;-77
2022/03/16 03:02:08;;;;;;;73.45;45.67;;;4.70;99.90;;;;;;5048464;28;20480;-78
2022/03/16 03:04:34;;;;;;;78.45;44.15;;;4.70;99.90;;;;;;5048039;28;20403;-78
2022/03/16 03:06:59;;;;;;;71.80;42.65;;;4.70;99.90;;;;;;5047564;28;20052;-78
2022/03/16 03:09:25;;;;;;;69.38;41.25;;;4.60;99.90;;;;;;5048994;28;20032;-77
2022/03/16 03:11:52;;;;;;;64.32;40.33;;;4.60;99.90;;;;;;5063719;28;20052;-77
2022/03/16 03:14:18;;;;;;;71.15;44.33;;;4.50;99.90;;;;;;5067460;28;20489;-78
2022/03/16 03:16:43;;;;;;;74.82;42.20;;;4.40;99.90;;;;;;5067636;28;20037;-78
2022/03/16 03:19:09;;;;;;;68.28;40.72;;;4.50;99.90;;;;;;5068332;28;20129;-77
2022/03/16 03:21:35;;;;;;;62.25;39.78;;;4.50;99.90;;;;;;5067785;28;20076;-76
2022/03/16 03:24:00;;;;;;;67.68;41.88;;;4.40;99.90;;;;;;5065146;28;20043;-77
2022/03/16 03:26:26;;;;;;;69.55;41.88;;;4.30;99.90;;;;;;5066991;28;20395;-77
2022/03/16 03:28:51;;;;;;;78.55;43.17;;;4.30;99.90;;;;;;5068245;28;20518;-78
2022/03/16 03:31:17;;;;;;;66.68;40.30;;;4.30;99.90;;;;;;5067085;28;20080;-78
2022/03/16 03:33:43;;;;;;;66.20;42.33;;;4.40;99.90;;;;;;5067655;28;20044;-77
2022/03/16 03:36:09;;;;;;;69.93;41.10;;;4.40;99.90;;;;;;5067153;28;20041;-78
2022/03/16 03:38:34;;;;;;;69.65;40.15;;;4.30;99.90;;;;;;5063365;28;20067;-78
2022/03/16 03:41:00;;;;;;;74.40;41.92;;;4.30;99.90;;;;;;5047064;28;20636;-78
2022/03/16 03:43:25;;;;;;;61.38;38.28;;;4.20;99.90;;;;;;5046205;28;20059;-77
2022/03/16 03:45:51;;;;;;;66.28;41.40;;;4.30;99.90;;;;;;5064547;28;20048;-76
2022/03/16 03:48:17;;;;;;;69.07;41.30;;;4.20;99.90;;;;;;5067757;28;20056;-77
2022/03/16 03:50:42;;;;;;;71.25;45.08;;;4.30;99.90;;;;;;5067868;28;20505;-78
2022/03/16 03:53:08;;;;;;;58.25;39.42;;;4.20;99.90;;;;;;5066408;28;20033;-79
2022/03/16 03:55:33;;;;;;;59.50;39.03;;;4.20;99.90;;;;;;5057368;28;20037;-77
2022/03/16 03:57:59;;;;;;;74.22;41.53;;;4.10;99.90;;;;;;5066671;28;20044;-77
2022/03/16 04:00:25;;;;;;;58.15;38.55;;;4.10;99.90;;;;;;5068059;28;20119;-77
2022/03/16 04:02:51;;;;;;;74.28;42.03;;;4.10;99.90;;;;;;5066483;28;20056;-77
2022/03/16 04:05:18;;;;;;;72.18;40.58;;;4.20;99.90;;;;;;5067659;28;20041;-77
2022/03/16 04:07:44;;;;;;;66.45;39.67;;;4.10;99.90;;;;;;5067349;28;20602;-78
2022/03/16 04:10:10;;;;;;;72.13;41.20;;;4.20;99.90;;;;;;5067488;28;20124;-77
2022/03/16 04:12:37;;;;;;;65.60;40.60;;;4.20;99.90;;;;;;5066696;28;20056;-77
2022/03/16 04:15:03;;;;;;;65.68;40.95;;;4.10;99.90;;;;;;5049195;28;20282;-77
2022/03/16 04:17:29;;;;;;;83.07;44.70;;;4.20;99.90;;;;;;5045819;28;20399;-77
2022/03/16 04:19:54;;;;;;;74.57;43.03;;;4.20;99.90;;;;;;5047517;28;20041;-77
2022/03/16 04:22:20;;;;;;;71.72;42.20;;;4.40;99.90;;;;;;5047662;28;20057;-78
2022/03/16 04:24:45;;;;;;;70.10;41.25;;;4.40;99.90;;;;;;5047013;28;20052;-77
2022/03/16 04:27:11;;;;;;;65.85;41.03;;;4.20;99.90;;;;;;5045366;28;20048;-79
2022/03/16 04:29:37;;;;;;;66.03;39.75;;;4.20;99.90;;;;;;5047077;28;20139;-78
2022/03/16 04:32:02;;;;;;;66.60;42.78;;;4.30;99.90;;;;;;5047576;28;20048;-79
2022/03/16 04:34:28;;;;;;;63.70;41.10;;;4.20;99.90;;;;;;5045979;28;20045;-77
2022/03/16 04:36:54;;;;;;;69.68;42.72;;;4.30;99.90;;;;;;5047669;28;20099;-78
2022/03/16 04:39:19;;;;;;;71.18;44.63;;;4.30;99.90;;;;;;5046464;28;20594;-78
2022/03/16 04:41:45;;;;;;;72.82;42.53;;;4.30;99.90;;;;;;5046245;28;20431;-78
2022/03/16 04:44:10;;;;;;;78.05;42.03;;;4.30;99.90;;;;;;5046034;28;20049;-77
2022/03/16 04:46:36;;;;;;;73.03;42.58;;;4.30;99.90;;;;;;5046877;28;20174;-77
2022/03/16 04:49:02;;;;;;;69.07;42.42;;;4.30;99.90;;;;;;5049955;28;20041;-77
2022/03/16 04:51:27;;;;;;;72.00;43.88;;;4.30;99.90;;;;;;5050895;28;20045;-77
2022/03/16 04:53:53;;;;;;;72.82;40.92;;;4.40;99.90;;;;;;5059025;28;20051;-78
2022/03/16 04:56:18;;;;;;;65.35;43.55;;;4.40;99.90;;;;;;5069944;28;20071;-78
2022/03/16 04:58:44;;;;;;;71.55;43.25;;;4.30;99.90;;;;;;5070481;28;20045;-76
2022/03/16 05:01:10;;;;;;;71.75;41.97;;;4.30;99.90;;;;;;5070828;28;20047;-79
2022/03/16 05:03:35;;;;;;;64.78;41.17;;;4.10;99.90;;;;;;5070321;28;20094;-78
2022/03/16 05:06:01;;;;;;;62.10;38.13;;;4.10;99.90;;;;;;5070958;28;20048;-78
2022/03/16 05:08:27;;;;;;;69.95;41.28;;;4.10;99.90;;;;;;5059744;28;20037;-78
2022/03/16 05:10:52;;;;;;;68.28;43.67;;;4.30;99.90;;;;;;5050423;28;20060;-77
2022/03/16 05:13:18;;;;;;;64.97;43.33;;;4.20;99.90;;;;;;5050763;28;20160;-78
2022/03/16 05:15:43;;;;;;;65.47;42.15;;;4.30;99.90;;;;;;5050139;28;20083;-78
2022/03/16 05:18:09;;;;;;;74.25;45.22;;;4.30;99.90;;;;;;5050869;28;20099;-78
2022/03/16 05:20:35;;;;;;;72.45;45.70;;;4.30;99.90;;;;;;5049177;28;20479;-78
2022/03/16 05:23:00;;;;;;;71.25;44.50;;;4.30;99.90;;;;;;5050218;28;20056;-78
2022/03/16 05:25:30;;;;;;;76.93;47.25;;;4.40;99.90;;;;;;5050514;28;20044;-77
2022/03/16 05:27:56;;;;;;;69.80;44.58;;;4.40;99.90;;;;;;5050658;28;20387;-76
2022/03/16 05:30:26;;;;;;;81.78;48.58;;;4.50;99.90;;;;;;5050786;28;20550;-77
2022/03/16 05:32:54;;;;;;;71.28;45.03;;;4.50;99.90;;;;;;5049096;28;20073;-77
2022/03/16 05:35:20;;;;;;;73.60;45.30;;;4.50;99.90;;;;;;5050133;28;20536;-78
2022/03/16 05:37:46;;;;;;;70.00;44.63;;;4.60;99.90;;;;;;5053079;28;20041;-78
2022/03/16 05:40:12;;;;;;;72.22;45.00;;;4.50;99.90;;;;;;5050763;28;20051;-76
2022/03/16 05:42:38;;;;;;;66.97;44.28;;;4.40;99.90;;;;;;5048112;28;20390;-76
2022/03/16 05:45:06;;;;;;;68.78;44.65;;;4.50;99.90;;;;;;5049820;28;20032;-77
2022/03/16 05:47:32;;;;;;;73.68;46.05;;;4.50;99.90;;;;;;5049345;28;20084;-76
2022/03/16 05:49:58;;;;;;;72.15;44.17;;;4.50;99.90;;;;;;5049854;28;20051;-77
2022/03/16 05:52:25;;;;;;;73.22;45.63;;;4.60;99.90;;;;;;5050201;28;20053;-77
2022/03/16 05:54:52;;;;;;;69.57;42.10;;;4.70;99.90;;;;;;5050084;28;20492;-77
2022/03/16 05:57:18;;;;;;;65.32;42.63;;;4.70;99.90;;;;;;5030601;28;20063;-76
2022/03/16 05:59:44;;;;;;;63.70;42.47;;;4.70;99.90;;;;;;5048726;28;20344;-76
2022/03/16 06:02:10;;;;;;;64.75;42.75;;;4.80;99.90;;;;;;5049663;28;20072;-77
2022/03/16 06:04:37;;;;;;;62.50;40.42;;;4.80;99.90;;;;;;5048007;28;20044;-77
2022/03/16 06:07:04;;;;;;;58.63;41.85;;;4.70;99.90;;;;;;5049612;28;20049;-77
2022/03/16 06:09:30;;;;;;;64.65;39.85;;;4.70;99.90;;;;;;5051689;28;20049;-77
2022/03/16 06:11:55;;;;;;;61.95;41.28;;;4.80;99.90;;;;;;5067737;28;20647;-75
2022/03/16 06:14:21;;;;;;;56.53;38.97;;;4.90;99.90;;;;;;5069619;28;20036;-75
2022/03/16 06:16:47;;;;;;;64.40;42.10;;;4.80;99.90;;;;;;5069330;28;20529;-76
2022/03/16 06:19:13;;;;;;;62.65;42.88;;;4.90;99.90;;;;;;5069400;28;20037;-77
2022/03/16 06:21:39;;;;;;;63.08;39.08;;;4.90;99.90;;;;;;5069293;28;20124;-77
2022/03/16 06:24:05;;;;;;;60.53;39.45;;;4.90;99.90;;;;;;5069330;28;20060;-77
2022/03/16 06:26:30;;;;;;;60.15;41.25;;;5.00;99.90;;;;;;5067952;28;20126;-77
2022/03/16 06:28:56;;;;;;;57.10;41.15;;;5.00;99.90;;;;;;5069101;28;20486;-77
2022/03/16 06:31:22;;;;;;;58.92;39.60;;;5.00;99.90;;;;;;5068380;28;20051;-77
2022/03/16 06:33:47;;;;;;;57.83;40.22;;;5.00;99.90;;;;;;5068742;28;20048;-77
2022/03/16 06:36:13;;;;;;;57.10;39.35;;;5.00;99.90;;;;;;5068011;28;20044;-77
2022/03/16 06:38:39;;;;;;;58.60;40.17;;;5.00;99.90;;;;;;5055737;28;20171;-77
2022/03/16 06:41:05;;;;;;;59.20;43.63;;;5.00;99.90;;;;;;5054628;28;20076;-77
2022/03/16 06:43:31;;;;;;;56.13;41.25;;;5.10;99.90;;;;;;5068648;28;20048;-77
2022/03/16 06:45:56;;;;;;;57.10;42.13;;;5.00;99.90;;;;;;5067284;28;20063;-76
2022/03/16 06:48:23;;;;;;;56.90;40.90;;;5.10;99.90;;;;;;5068638;28;20055;-77
2022/03/16 06:50:50;;;;;;;66.88;39.20;;;5.10;99.90;;;;;;5068958;28;20126;-78
2022/03/16 06:53:16;;;;;;;62.03;40.65;;;5.20;99.90;;;;;;5068664;28;20553;-77
2022/03/16 06:55:42;;;;;;;62.92;40.63;;;5.20;99.90;;;;;;5067363;28;20032;-78
2022/03/16 06:58:07;;;;;;;51.30;36.92;;;5.20;99.90;;;;;;5067437;28;20032;-77
2022/03/16 07:00:33;;;;;;;58.33;37.53;;;5.30;99.90;;;;;;5068181;28;20394;-77
2022/03/16 07:03:01;;;;;;;49.53;40.30;;;5.30;99.90;;;;;;5049999;28;20045;-76
2022/03/16 07:05:32;;;;;;;50.25;38.95;;;5.40;99.90;;;;;;5046948;28;20057;-77
2022/03/16 07:07:59;;;;;;;49.47;39.90;;;5.50;99.90;;;;;;5048443;28;20048;-75
2022/03/16 07:10:25;;;;;;;54.40;38.28;;;5.50;99.90;;;;;;5047494;28;20037;-76
2022/03/16 07:12:51;;;;;;;54.38;39.90;;;5.60;99.90;;;;;;5046988;28;20080;-75
2022/03/16 07:15:17;;;;;;;52.08;40.38;;;5.70;99.90;;;;;;5046918;28;20448;-76
2022/03/16 07:17:42;;;;;;;60.72;40.08;;;5.80;99.90;;;;;;5046449;28;20419;-76
2022/03/16 07:20:08;;;;;;;59.47;42.22;;;5.80;99.90;;;;;;5048316;28;20033;-76
2022/03/16 07:22:35;;;;;;;53.25;42.90;;;6.00;99.90;;;;;;5046922;28;20048;-76
2022/03/16 07:25:04;;;;;;;45.63;38.15;;;6.00;99.90;;;;;;5047743;28;20045;-76
2022/03/16 07:27:30;;;;;;;55.75;38.78;;;6.00;99.90;;;;;;5045785;28;20127;-76
2022/03/16 07:29:55;;;;;;;54.13;40.08;;;6.20;99.90;;;;;;5047974;28;20562;-76
2022/03/16 07:32:22;;;;;;;49.00;36.80;;;6.20;99.90;;;;;;5060643;28;20047;-77
2022/03/16 07:34:48;;;;;;;51.22;38.13;;;6.30;99.90;;;;;;5067430;28;20045;-77
2022/03/16 07:37:14;;;;;;;44.92;36.40;;;6.30;99.90;;;;;;5067819;28;20048;-75
2022/03/16 07:39:40;;;;;;;46.35;35.72;;;6.30;99.90;;;;;;5067327;28;20037;-75
2022/03/16 07:42:06;;;;;;;49.72;36.90;;;6.50;99.90;;;;;;5066852;28;20037;-75
2022/03/16 07:44:32;;;;;;;42.78;35.25;;;6.50;99.90;;;;;;5067337;28;20040;-75
2022/03/16 07:46:59;;;;;;;44.15;32.85;;;6.60;99.90;;;;;;5066501;28;20125;-75
2022/03/16 07:49:25;;;;;;;39.75;31.05;;;6.60;99.90;;;;;;5067957;28;20052;-76
2022/03/16 07:51:50;;;;;;;41.97;33.08;;;6.70;99.90;;;;;;5067824;28;20045;-75
2022/03/16 07:54:16;;;;;;;35.38;28.92;;;6.90;99.90;;;;;;5066480;28;20564;-76
2022/03/16 07:56:41;;;;;;;35.38;29.85;;;6.90;99.90;;;;;;5065980;28;20033;-75
2022/03/16 07:59:07;;;;;;;40.65;30.85;;;7.10;99.90;;;;;;5049788;28;20053;-75
2022/03/16 08:01:33;;;;;;;41.17;31.40;;;7.10;99.90;;;;;;5058824;28;20587;-76
2022/03/16 08:03:58;;;;;;;36.80;31.00;;;7.20;99.90;;;;;;5047494;28;20044;-76
2022/03/16 08:06:24;;;;;;;37.75;29.55;;;7.30;99.90;;;;;;5048010;28;20041;-77
2022/03/16 08:08:49;;;;;;;42.13;33.00;;;7.40;99.90;;;;;;5047216;28;20095;-77
2022/03/16 08:11:15;;;;;;;41.05;30.75;;;7.50;99.90;;;;;;5046357;28;20503;-76
2022/03/16 08:13:40;;;;;;;42.60;33.03;;;7.70;99.90;;;;;;5047466;28;20392;-76
2022/03/16 08:16:06;;;;;;;36.92;31.77;;;7.90;99.90;;;;;;5049239;28;20045;-76
2022/03/16 08:18:32;;;;;;;36.58;30.00;;;7.80;99.90;;;;;;5047939;28;20045;-77
2022/03/16 08:20:58;;;;;;;34.20;28.30;;;7.90;99.90;;;;;;5047742;28;20311;-76
2022/03/16 08:23:23;;;;;;;30.13;26.33;;;7.90;99.90;;;;;;5051792;28;20052;-77
2022/03/16 08:25:49;;;;;;;34.42;25.70;;;8.00;99.90;;;;;;5051575;28;20037;-78
2022/03/16 08:28:15;;;;;;;34.65;25.92;;;7.90;99.90;;;;;;5051750;28;20048;-77
2022/03/16 08:30:41;;;;;;;30.23;23.48;;;8.10;99.90;;;;;;5051553;28;20067;-77
2022/03/16 08:33:07;;;;;;;29.50;24.30;;;8.30;99.90;;;;;;5071448;28;20123;-77
2022/03/16 08:35:33;;;;;;;26.88;23.55;;;8.40;99.90;;;;;;5073951;28;20063;-77
2022/03/16 08:37:59;;;;;;;41.50;24.17;;;8.40;99.90;;;;;;5075563;28;20041;-76
2022/03/16 08:40:24;;;;;;;29.73;21.92;;;8.50;99.90;;;;;;5073916;28;20184;-76
2022/03/16 08:42:52;;;;;;;31.10;22.90;;;8.50;99.90;;;;;;5071103;28;20123;-77
2022/03/16 08:45:18;;;;;;;32.35;22.85;;;8.70;99.90;;;;;;5071759;28;20491;-77
2022/03/16 08:47:44;;;;;;;28.80;22.65;;;8.80;99.90;;;;;;5071086;28;20059;-77
2022/03/16 08:50:10;;;;;;;30.85;21.80;;;8.80;99.90;;;;;;5069826;28;20439;-77
2022/03/16 08:52:35;;;;;;;30.02;22.05;;;9.00;99.90;;;;;;5069882;28;20048;-77
2022/03/16 08:55:01;;;;;;;33.80;22.05;;;9.20;99.90;;;;;;5070019;28;20040;-77
2022/03/16 08:57:28;;;;;;;27.65;22.10;;;9.20;99.90;;;;;;5071100;28;20048;-77
2022/03/16 08:59:55;;;;;;;26.45;19.25;;;9.20;99.90;;;;;;5071239;28;20101;-76
2022/03/16 09:02:21;;;;;;;29.52;20.88;;;9.40;99.90;;;;;;5054541;28;20080;-77
2022/03/16 09:04:47;;;;;;;26.63;21.50;;;9.30;99.90;;;;;;5049968;28;20091;-77
2022/03/16 09:07:13;;;;;;;27.10;21.83;;;9.40;99.90;;;;;;5051502;28;20037;-77
2022/03/16 09:09:41;;;;;;;27.17;22.83;;;9.40;99.90;;;;;;5050558;28;20410;-76
2022/03/16 09:12:11;;;;;;;31.17;21.48;;;9.60;99.90;;;;;;5050901;28;20040;-77
2022/03/16 09:14:37;;;;;;;26.35;20.42;;;9.80;99.90;;;;;;5051039;28;20037;-78
2022/03/16 09:17:03;;;;;;;27.77;19.65;;;9.90;99.90;;;;;;5070612;28;20501;-77
2022/03/16 09:19:28;;;;;;;32.17;21.48;;;9.90;99.90;;;;;;5069263;28;20071;-77
2022/03/16 09:21:54;;;;;;;32.53;21.08;;;10.10;99.90;;;;;;5070915;28;20063;-76
2022/03/16 09:24:21;;;;;;;32.80;23.65;;;10.10;99.90;;;;;;5070218;28;20075;-76
2022/03/16 09:26:46;;;;;;;32.90;24.15;;;10.20;99.90;;;;;;5069490;28;20076;-76
2022/03/16 09:29:13;;;;;;;32.67;21.85;;;10.40;99.90;;;;;;5070216;28;20083;-77
2022/03/16 09:31:39;;;;;;;31.13;22.55;;;10.50;99.90;;;;;;5070191;28;20040;-78
2022/03/16 09:34:07;;;;;;;32.72;22.60;;;10.40;99.90;;;;;;5069442;28;20041;-76
2022/03/16 09:36:42;;;;;;;30.92;21.75;;;10.60;99.90;;;;;;5070152;28;20063;-78
2022/03/16 09:39:08;;;;;;;30.00;23.13;;;10.60;99.90;;;;;;5070747;28;20045;-79
2022/03/16 09:41:36;;;;;;;30.40;19.27;;;10.70;99.90;;;;;;5069764;28;20051;-78
2022/03/16 09:44:02;;;;;;;28.33;19.73;;;10.80;99.90;;;;;;5058697;28;20084;-76
2022/03/16 09:46:35;;;;;;;27.50;19.23;;;10.80;99.90;;;;;;5050279;28;20069;-77
2022/03/16 09:49:03;;;;;;;27.27;18.77;;;10.80;99.90;;;;;;5049008;28;20053;-76
2022/03/16 09:51:34;;;;;;;23.17;16.30;;;10.80;99.90;;;;;;5066883;28;20482;-76
2022/03/16 09:54:00;;;;;;;26.65;17.48;;;10.90;99.90;;;;;;5070499;28;20072;-77
2022/03/16 09:56:26;;;;;;;22.50;16.48;;;11.10;99.90;;;;;;5069176;28;20522;-76
2022/03/16 09:58:51;;;;;;;22.25;18.00;;;11.30;99.90;;;;;;5068821;28;20135;-77
2022/03/16 10:01:18;;;;;;;21.65;16.92;;;11.40;99.90;;;;;;5069730;28;20507;-76
2022/03/16 10:03:48;;;;;;;21.00;15.23;;;11.40;99.90;;;;;;5069481;28;20441;-77
2022/03/16 10:06:16;;;;;;;19.35;14.30;;;11.30;99.90;;;;;;5069940;28;20040;-76
2022/03/16 10:08:42;;;;;;;20.77;15.70;;;11.30;99.90;;;;;;5067881;28;20440;-78
2022/03/16 10:13:59;;;;;;;20.77;16.90;;;11.50;99.90;;;;;;5049743;28;20037;-77
2022/03/16 10:16:25;;;;;;;21.67;12.48;;;11.60;99.90;;;;;;5032696;28;20061;-77
2022/03/16 10:18:55;;;;;;;16.70;13.23;;;11.60;99.90;;;;;;5048176;28;20052;-77
2022/03/16 10:21:23;;;;;;;15.15;13.45;;;11.70;99.90;;;;;;5049754;28;20441;-78
2022/03/16 10:23:48;;;;;;;17.25;11.90;;;11.70;99.90;;;;;;5049060;28;20098;-77
2022/03/16 10:26:19;;;;;;;17.35;11.55;;;11.60;99.90;;;;;;5048357;28;20033;-77
2022/03/16 10:28:47;;;;;;;14.07;11.18;;;11.60;99.90;;;;;;5047567;28;20060;-79
2022/03/16 10:31:18;;;;;;;15.65;11.40;;;11.60;99.90;;;;;;5049549;28;20190;-77
2022/03/16 10:33:48;;;;;;;;;;;11.70;99.90;;;;;;5049477;28;20237;-77
2022/03/16 10:36:16;;;;;;;16.98;12.00;;;11.90;99.90;;;;;;5049017;28;19946;-77
2022/03/16 10:38:43;;;;;;;15.55;11.32;;;12.00;99.90;;;;;;5030976;28;20496;-76
2022/03/16 10:46:55;;;;;;;15.02;11.73;;;12.20;99.90;;;;;;5069187;28;20072;-77
2022/03/16 10:49:22;;;;;;;16.30;12.05;;;12.30;99.90;;;;;;5068664;28;20100;-77
2022/03/16 10:52:17;;;;;;;16.48;12.20;;;12.40;99.90;;;;;;5068413;28;20044;-77
2022/03/16 10:54:43;;;;;;;15.93;11.77;;;12.40;99.90;;;;;;5067171;28;20540;-77
2022/03/16 10:57:10;;;;;;;14.82;11.20;;;12.40;99.90;;;;;;5068763;28;20102;-78
2022/03/16 10:59:38;;;;;;;15.88;10.60;;;12.40;99.90;;;;;;5068164;28;20091;-77
2022/03/16 11:02:15;;;;;;;16.55;10.90;;;12.60;99.90;;;;;;5068217;28;20036;-76
2022/03/16 11:04:43;;;;;;;15.75;10.65;;;12.70;99.90;;;;;;5067021;28;20049;-77
2022/03/16 11:07:09;;;;;;;15.43;11.73;;;12.60;99.90;;;;;;5067359;28;20048;-78
2022/03/16 11:09:36;;;;;;;16.58;11.70;;;12.60;99.90;;;;;;5060028;28;20384;-77
2022/03/16 11:14:49;;;;;;;13.30;10.57;;;12.70;99.90;;;;;;5048363;28;20080;-76
2022/03/16 11:17:16;;;;;;;13.00;9.15;;;12.80;99.90;;;;;;5047067;28;20072;-77
2022/03/16 11:19:44;;;;;;;12.43;9.80;;;12.70;99.90;;;;;;5048111;28;20051;-77
2022/03/16 11:22:22;;;;;;;13.23;8.50;;;12.80;99.90;;;;;;5047246;28;20087;-77
2022/03/16 11:25:11;;;;;;;19.30;12.10;;;12.80;99.90;;;;;;5046823;28;20049;-78
2022/03/16 11:27:46;;;;;;;15.35;11.10;;;12.80;99.90;;;;;;5046244;28;20128;-77
2022/03/16 11:30:33;;;;;;;16.38;11.57;;;12.80;99.90;;;;;;5047997;28;20094;-77
2022/03/16 11:33:05;;;;;;;15.40;10.00;;;12.90;99.90;;;;;;5048135;28;20045;-76
2022/03/16 11:35:52;;;;;;;13.20;9.88;;;12.90;99.90;;;;;;5046277;28;20080;-76
2022/03/16 11:38:21;;;;;;;19.67;11.63;;;13.10;99.90;;;;;;5046729;28;20049;-76
2022/03/16 11:40:51;;;;;;;17.23;12.80;;;13.00;99.90;;;;;;5046090;28;20807;-76
2022/03/16 11:43:22;;;;;;;15.35;11.88;;;13.20;99.90;;;;;;5048227;28;20043;-76
2022/03/16 11:45:51;;;;;;;13.82;9.65;;;13.10;99.90;;;;;;5046515;28;20107;-78
2022/03/16 11:48:32;;;;;;;15.70;10.63;;;12.80;99.90;;;;;;5048606;28;20116;-77
2022/03/16 11:51:11;;;;;;;15.20;10.82;;;13.10;99.90;;;;;;5030341;28;20045;-77
2022/03/16 11:53:46;;;;;;;14.30;9.75;;;13.20;99.90;;;;;;5047634;28;20045;-77
2022/03/16 11:56:20;;;;;;;13.93;9.65;;;13.30;99.90;;;;;;5046404;28;20045;-76
2022/03/16 11:58:47;;;;;;;18.10;11.00;;;13.30;99.90;;;;;;5030013;28;20110;-77
2022/03/16 12:01:33;;;;;;;11.90;10.05;;;13.20;99.90;;;;;;5047927;28;20045;-77
2022/03/16 12:04:14;;;;;;;12.88;9.77;;;13.10;99.90;;;;;;5047836;28;20032;-77
2022/03/16 12:07:05;;;;;;;14.73;11.25;;;13.20;99.90;;;;;;5046284;28;20047;-77
2022/03/16 12:09:33;;;;;;;18.25;13.27;;;13.50;99.90;;;;;;5046777;28;20033;-77
2022/03/16 12:15:17;;;;;;;16.50;10.52;;;13.40;99.90;;;;;;5068225;28;20415;-77
2022/03/16 12:17:52;;;;;;;10.40;7.72;;;13.60;99.90;;;;;;5067525;28;20056;-77
2022/03/16 12:20:34;;;;;;;11.23;8.63;;;13.70;99.90;;;;;;5068203;28;20097;-76
2022/03/16 12:23:10;;;;;;;12.52;8.90;;;13.50;99.90;;;;;;5068336;28;20051;-76
2022/03/16 12:25:46;;;;;;;12.07;8.35;;;13.50;99.90;;;;;;5066675;28;20053;-76
2022/03/16 12:31:15;;;;;;;17.67;9.82;;;13.50;99.90;;;;;;5067512;28;20045;-76
2022/03/16 12:33:46;;;;;;;11.35;8.77;;;13.60;99.90;;;;;;5066926;28;20045;-77
2022/03/16 12:36:12;;;;;;;;;;;13.60;99.90;;;;;;5068066;28;20045;-76
2022/03/16 12:38:42;;;;;;;14.38;9.48;;;13.60;99.90;;;;;;5065892;28;19920;-76
2022/03/16 12:43:59;;;;;;;19.00;9.43;;;13.60;99.90;;;;;;5047419;28;20049;-76
2022/03/16 12:46:49;;;;;;;10.50;6.95;;;13.60;99.90;;;;;;5046337;28;20052;-76
2022/03/16 12:49:20;;;;;;;15.82;10.40;;;13.70;99.90;;;;;;5047391;28;20252;-76
2022/03/16 12:51:50;;;;;;;13.90;9.07;;;13.60;99.90;;;;;;5047060;28;20041;-77
2022/03/16 12:54:33;;;;;;;15.68;9.23;;;13.70;99.90;;;;;;5046282;28;20064;-75
2022/03/16 12:57:11;;;;;;;11.60;8.45;;;13.60;99.90;;;;;;5047620;28;20040;-75